createdAt,value
2022-11-22T00:09:06.081Z,8.28
2022-11-22T00:38:58.081Z,8.39
2022-11-22T01:08:41.337Z,8.62
2022-11-22T01:23:32.701Z,8.75
2022-11-22T01:38:23.241Z,8.81
2022-11-22T01:53:14.953Z,8.87
2022-11-22T02:08:15.818Z,8.93
2022-11-22T02:23:11.461Z,9.01
2022-11-22T02:38:08.727Z,9.04
2022-11-22T02:53:03.316Z,9.07
2022-11-22T03:07:54.354Z,9.06
2022-11-22T03:22:45.732Z,8.97
2022-11-22T03:37:36.432Z,8.85
2022-11-22T03:52:26.551Z,8.85
2022-11-22T04:07:17.193Z,8.75
2022-11-22T04:22:08.240Z,8.65
2022-11-22T04:36:59.295Z,8.61
2022-11-22T04:52:08.100Z,8.50
2022-11-22T05:07:04.460Z,8.38
2022-11-22T05:21:54.884Z,8.23
2022-11-22T05:36:45.725Z,8.17
2022-11-22T05:51:36.520Z,8.11
2022-11-22T06:06:27.452Z,8.14
2022-11-22T06:21:18.969Z,8.26
2022-11-22T06:36:10.031Z,8.25
2022-11-22T06:51:05.985Z,8.24
2022-11-22T07:05:52.576Z,8.20
2022-11-22T07:20:43.563Z,8.24
2022-11-22T07:35:34.466Z,8.28
2022-11-22T07:50:25.440Z,8.32
2022-11-22T08:05:15.591Z,8.40
2022-11-22T08:20:07.056Z,8.46
2022-11-22T08:34:59.305Z,8.60
2022-11-22T08:49:50.000Z,8.71
2022-11-22T09:04:40.351Z,8.85
2022-11-22T09:19:31.843Z,8.97
2022-11-22T09:34:22.900Z,9.12
2022-11-22T09:49:30.082Z,9.36
2022-11-22T10:04:26.064Z,9.42
2022-11-22T10:19:17.238Z,9.52
2022-11-22T10:34:29.508Z,9.53
2022-11-22T10:49:50.009Z,9.65
2022-11-22T11:04:47.589Z,9.79
2022-11-22T11:19:39.605Z,9.98
2022-11-22T11:34:31.409Z,10.13
2022-11-22T11:49:22.852Z,10.31
2022-11-22T12:04:14.378Z,10.38
2022-11-22T12:19:11.063Z,10.50
2022-11-22T12:34:14.374Z,10.59
2022-11-22T12:49:22.353Z,10.66
2022-11-22T13:04:19.847Z,10.62
2022-11-22T13:19:13.074Z,10.57
2022-11-22T13:34:03.558Z,10.51
2022-11-22T14:03:45.852Z,10.37
2022-11-22T14:34:22.825Z,10.27
2022-11-22T14:49:28.139Z,10.01
2022-11-22T15:09:18.218Z,9.77
2022-11-22T16:04:30.789Z,9.28
2022-11-22T16:19:26.438Z,9.10
2022-11-22T16:34:17.015Z,8.91
2022-11-22T16:49:19.591Z,8.80
2022-11-22T17:34:23.044Z,8.84
2022-11-22T17:49:15.974Z,8.96
2022-11-22T18:04:04.977Z,8.92
2022-11-22T18:18:58.114Z,8.84
2022-11-22T18:33:46.739Z,8.79
2022-11-22T18:48:36.843Z,8.75
2022-11-22T19:18:44.467Z,8.65
2022-11-22T19:33:38.044Z,8.59
2022-11-22T19:48:28.919Z,8.50
2022-11-22T20:03:18.671Z,8.44
2022-11-22T20:18:09.301Z,8.46
2022-11-22T20:32:59.325Z,8.53
2022-11-22T20:47:50.228Z,8.64
2022-11-22T21:02:41.138Z,8.74
2022-11-22T21:32:48.663Z,8.83
2022-11-22T21:47:39.868Z,8.88
2022-11-22T22:02:30.130Z,8.83
2022-11-22T22:17:20.105Z,8.80
2022-11-22T22:32:10.953Z,8.75
2022-11-22T22:47:00.715Z,8.62
2022-11-22T23:01:52.517Z,8.53
2022-11-22T23:16:41.707Z,8.46
2022-11-22T23:31:31.799Z,8.48
2022-11-22T23:46:22.014Z,8.55
